Arctic Fury — WDE9335 — position and weather

sailwx.info

Track history (hours):
 
Tides and Currents Weather Stations Pressure Air Temp Water Temp Dewpoint Dewpoint Depression Visibility Wind Speed Wind Dir Waves Ship Positions

Arctic Fury

Owner: Fury Group Inc, Seattle, WA. More information available from US FCC via Universal Licensing System and Coast Guard Vessel Documentation Center.

Last reported at 2018-Jun-19 17:23 UTC. Time now 2018-Jun-21 12:00 UTC.
Position N 43°55' W 124°26'.

Length 43 m; draft 5 m.

Type: Fishing. MMSI: 366468000.

Date/timePositionNaut miles runAvg speedWind from/ knotsBaromVisibWave heightAir tempDewpointWater temp
2018-Jun-19 17:23N 43°55' W 124°26'2 3.0
2018-Jun-19 16:47N 43°53' W 124°26'3 3.6
2018-Jun-19 15:59N 43°52' W 124°23'2 2.5
2018-Jun-19 15:15N 43°51' W 124°21'2 9.2
2018-Jun-19 15:00N 43°53' W 124°21'5 8.4
2018-Jun-19 14:22N 43°58' W 124°20'512.0
2018-Jun-19 13:59N 43°59' W 124°26'2 3.3
2018-Jun-19 13:30N 43°59' W 124°28'0 0.3
2018-Jun-19 12:36N 43°59' W 124°28'1 6.1
2018-Jun-19 12:30N 43°59' W 124°27'3 5.8
2018-Jun-19 11:58N 43°59' W 124°23'2 4.0
2018-Jun-19 11:28N 43°59' W 124°20'0 0.8
2018-Jun-19 10:52N 43°59' W 124°21'0 0.4
2018-Jun-19 10:30N 43°59' W 124°21'0 0.3
2018-Jun-19 09:50N 43°59' W 124°21'0 0.3
2018-Jun-19 09:30N 43°59' W 124°22'0 0.3
2018-Jun-19 09:00N 43°59' W 124°22'0 0.3
2018-Jun-19 08:30N 43°59' W 124°22'0 0.4
2018-Jun-19 07:59N 43°59' W 124°22'0 0.4
2018-Jun-19 07:25N 43°60' W 124°22'0 0.5
2018-Jun-19 06:58N 43°60' W 124°22'0 0.6
2018-Jun-19 06:30N 44°00' W 124°22'1 0.9
2018-Jun-19 05:31N 44°01' W 124°22'0 1.0
2018-Jun-19 05:17N 44°01' W 124°23'2 1.5
2018-Jun-19 04:18N 44°00' W 124°24'4 4.4
2018-Jun-19 03:18N 43°56' W 124°22'3 7.0
2018-Jun-19 02:49N 43°53' W 124°22'8 9.1
2018-Jun-19 01:58N 43°50' W 124°32'4 7.2
2018-Jun-19 01:24N 43°50' W 124°38'4 9.4
2018-Jun-19 00:57N 43°54' W 124°37'4 7.7
2018-Jun-19 00:25N 43°58' W 124°36'4 9.1
2018-Jun-18 23:59N 44°01' W 124°32'12 7.2
2018-Jun-18 22:18N 44°11' W 124°40'3 9.8
2018-Jun-18 22:00N 44°14' W 124°39'8 8.9
2018-Jun-18 21:03N 44°19' W 124°48'3 8.9
2018-Jun-18 20:44N 44°21' W 124°50'3 9.3
2018-Jun-18 20:28N 44°22' W 124°47'5 8.9
2018-Jun-18 19:53N 44°23' W 124°40'4 6.2
2018-Jun-18 19:12N 44°27' W 124°38'2 9.7
2018-Jun-18 19:00N 44°28' W 124°36'6 9.9
2018-Jun-18 18:23N 44°33' W 124°30'12 9.1
2018-Jun-18 17:02N 44°45' W 124°33'210.0
2018-Jun-18 16:52N 44°47' W 124°33'9 9.8
2018-Jun-18 15:54N 44°56' W 124°32'4 9.9
2018-Jun-18 15:28N 45°00' W 124°32'510.1
2018-Jun-18 15:00N 45°05' W 124°31'5 9.9
2018-Jun-18 14:30N 45°10' W 124°30'510.8
2018-Jun-18 14:00N 45°15' W 124°30'510.6
2018-Jun-18 13:30N 45°21' W 124°29'510.6
2018-Jun-18 13:00N 45°26' W 124°28'510.7
2018-Jun-18 12:30N 45°31' W 124°27'510.5
2018-Jun-18 12:00N 45°36' W 124°27'510.2
2018-Jun-18 11:30N 45°41' W 124°26'4 8.9
2018-Jun-18 11:00N 45°46' W 124°25'4 8.5
2018-Jun-18 10:30N 45°50' W 124°25'4 8.9
2018-Jun-18 10:00N 45°54' W 124°24'4 8.7
2018-Jun-18 09:30N 45°59' W 124°24'4 8.8
2018-Jun-18 09:00N 46°03' W 124°23'4 8.8
2018-Jun-18 08:30N 46°07' W 124°23'5 9.2
2018-Jun-18 08:00N 46°12' W 124°22'5 9.3
2018-Jun-18 07:30N 46°17' W 124°21'5 9.2
2018-Jun-18 07:00N 46°21' W 124°21'5 9.4
2018-Jun-18 06:30N 46°26' W 124°20'5 9.4
2018-Jun-18 06:00N 46°31' W 124°19'4 8.9
2018-Jun-18 05:30N 46°35' W 124°19'5 9.5
2018-Jun-18 05:00N 46°40' W 124°18'510.0
2018-Jun-18 04:30N 46°45' W 124°17'510.2
2018-Jun-18 04:00N 46°50' W 124°17'5 9.4
2018-Jun-18 03:30N 46°54' W 124°13'5 9.6
2018-Jun-18 03:00N 46°55' W 124°06'0 0.1
2018-Jun-18 01:19N 46°55' W 124°07'0 0.0
2018-Jun-18 00:59N 46°55' W 124°07'0 0.0
2018-Jun-18 00:30N 46°55' W 124°07'0 0.5
2018-Jun-18 00:00N 46°54' W 124°06'0 0.0
2018-Jun-17 23:30N 46°54' W 124°06'0 0.0
2018-Jun-17 22:45N 46°54' W 124°06'0 0.0
2018-Jun-17 22:30N 46°54' W 124°06'0 0.0
2018-Jun-17 22:00N 46°54' W 124°06'0 0.0
2018-Jun-17 21:21N 46°54' W 124°06'0 0.0
2018-Jun-17 20:48N 46°54' W 124°06'0 0.0
2018-Jun-17 20:17N 46°54' W 124°06'0 0.0
2018-Jun-17 20:00N 46°54' W 124°06'0 0.0
2018-Jun-17 19:28N 46°54' W 124°06'0 0.0
2018-Jun-17 18:55N 46°54' W 124°06'0 0.0
2018-Jun-17 18:30N 46°54' W 124°06'0 0.0
2018-Jun-17 17:57N 46°54' W 124°06'0 0.0
2018-Jun-17 17:30N 46°54' W 124°06'0 0.0
2018-Jun-17 16:50N 46°54' W 124°06'0 0.0
2018-Jun-17 16:14N 46°54' W 124°06'0 0.0
2018-Jun-17 15:56N 46°54' W 124°06'0 0.0
2018-Jun-17 15:27N 46°54' W 124°06'0 0.0
2018-Jun-17 15:00N 46°54' W 124°06'0 0.0
2018-Jun-17 14:30N 46°54' W 124°06'0 0.0
2018-Jun-17 13:58N 46°54' W 124°06'1 2.9
2018-Jun-17 13:29N 46°55' W 124°08'3 6.6
2018-Jun-17 13:00N 46°55' W 124°13'5 9.9
2018-Jun-17 12:30N 46°59' W 124°17'510.2
2018-Jun-17 12:00N 47°03' W 124°21'510.2
2018-Jun-17 11:30N 47°08' W 124°26'2110.2
2018-Jun-17 09:25N 47°25' W 124°44'410.2
2018-Jun-17 08:59N 47°29' W 124°47'2010.0
2018-Jun-17 06:57N 47°45' W 125°05'510.5
2018-Jun-17 06:31N 47°49' W 125°09'5 9.2
2018-Jun-17 06:00N 47°53' W 125°12'2 4.1
2018-Jun-17 05:30N 47°55' W 125°14'2 3.2
2018-Jun-17 04:57N 47°56' W 125°16'1 2.3
2018-Jun-17 04:30N 47°57' W 125°17'2 3.3
2018-Jun-17 04:00N 47°58' W 125°18'1 2.8
2018-Jun-17 03:30N 47°59' W 125°20'2 3.1
2018-Jun-17 03:00N 48°01' W 125°20'1 3.0
2018-Jun-17 02:30N 48°02' W 125°20'2 3.4
2018-Jun-17 02:00N 48°04' W 125°18'1 1.0
2018-Jun-17 01:28N 48°03' W 125°19'2 3.4
2018-Jun-17 01:00N 48°02' W 125°20'2 3.3
2018-Jun-17 00:30N 48°01' W 125°21'2 3.3
2018-Jun-17 00:00N 47°59' W 125°20'1 1.7
2018-Jun-16 23:30N 47°58' W 125°19'1 2.6
2018-Jun-16 22:59N 47°60' W 125°20'2 2.9
2018-Jun-16 22:23N 48°01' W 125°20'1 3.1
2018-Jun-16 22:00N 48°03' W 125°20'2 2.6
2018-Jun-16 21:16N 48°04' W 125°20'75 2.0
2018-Jun-15 06:57N 46°60' W 124°22'510.5
2018-Jun-15 06:30N 46°56' W 124°18'4 8.8
2018-Jun-15 06:00N 46°55' W 124°12'4 1.0
2018-Jun-15 02:05N 46°54' W 124°06'0 0.0
2018-Jun-14 21:58N 46°54' W 124°06'2 0.8
2018-Jun-14 19:33N 46°55' W 124°09'112.0
2018-Jun-14 19:26N 46°55' W 124°11'511.2
2018-Jun-14 19:00N 46°51' W 124°16'510.9
2018-Jun-14 18:30N 46°45' W 124°17'510.7
2018-Jun-14 18:00N 46°40' W 124°17'510.8
2018-Jun-14 17:30N 46°35' W 124°18'510.4
2018-Jun-14 17:00N 46°30' W 124°19'5 9.9
2018-Jun-14 16:30N 46°25' W 124°20'510.0
2018-Jun-14 16:00N 46°20' W 124°21'510.5
2018-Jun-14 15:30N 46°15' W 124°21'510.0
2018-Jun-14 15:00N 46°10' W 124°22'6 9.9
2018-Jun-14 14:22N 46°03' W 124°23'3 9.2
2018-Jun-14 14:00N 45°60' W 124°23'4 9.0
2018-Jun-14 13:30N 45°55' W 124°23'4 8.8
2018-Jun-14 13:00N 45°51' W 124°23'4 8.7
2018-Jun-14 12:30N 45°47' W 124°24'4 8.8
2018-Jun-14 12:00N 45°42' W 124°24'4 8.9
2018-Jun-14 11:30N 45°38' W 124°24'4 8.9
2018-Jun-14 11:00N 45°33' W 124°24'4 8.9
2018-Jun-14 10:30N 45°29' W 124°25'4 8.7
2018-Jun-14 10:00N 45°25' W 124°25'5 8.9
2018-Jun-14 09:29N 45°20' W 124°25'119 4.7
2018-Jun-13 08:24N 43°21' W 124°20'1 3.5
2018-Jun-13 08:00N 43°22' W 124°19'3 5.1
2018-Jun-13 07:30N 43°22' W 124°22'19 9.2
2018-Jun-13 05:24N 43°39' W 124°35'7 0.3
2018-Jun-12 05:01N 43°32' W 124°38'0 1.5
2018-Jun-12 05:00N 43°32' W 124°38'1 2.4
2018-Jun-12 04:30N 43°33' W 124°38'2 3.3
2018-Jun-12 04:00N 43°35' W 124°37'1 1.8
2018-Jun-12 03:16N 43°36' W 124°38'1 2.9
2018-Jun-12 03:00N 43°35' W 124°38'2 2.7
2018-Jun-12 02:09N 43°33' W 124°37'1 3.4
2018-Jun-12 01:59N 43°32' W 124°38'105 2.5
2018-Jun-10 07:15N 45°16' W 124°15'3 9.7
2018-Jun-10 06:58N 45°19' W 124°15'4 9.8
2018-Jun-10 06:31N 45°24' W 124°15'5 9.8
2018-Jun-10 06:00N 45°28' W 124°15'5 9.9
2018-Jun-10 05:31N 45°33' W 124°15'5 9.8
2018-Jun-10 05:00N 45°38' W 124°15'5 9.8
2018-Jun-10 04:30N 45°43' W 124°15'5 9.5
2018-Jun-10 04:00N 45°48' W 124°16'8 9.8
2018-Jun-10 03:11N 45°56' W 124°17'210.0
2018-Jun-10 03:01N 45°58' W 124°17'810.1
2018-Jun-10 02:14N 46°05' W 124°18'210.0
2018-Jun-10 02:00N 46°08' W 124°19'5 9.7
2018-Jun-10 01:30N 46°12' W 124°20'10 9.2
2018-Jun-10 00:27N 46°21' W 124°26'4 9.5
2018-Jun-10 00:01N 46°25' W 124°29'5 9.0
2018-Jun-09 23:30N 46°29' W 124°32'4 8.0
2018-Jun-09 23:00N 46°32' W 124°35'5 9.3
2018-Jun-09 22:30N 46°35' W 124°40'5 9.1
2018-Jun-09 22:00N 46°38' W 124°45'4 8.5
2018-Jun-09 21:31N 46°42' W 124°48'4 8.0
2018-Jun-09 21:00N 46°45' W 124°52'4 8.9
2018-Jun-09 20:30N 46°49' W 124°56'  
Track history (hours):
 
Tides and Currents Weather Stations Pressure Air Temp Water Temp Dewpoint Dewpoint Depression Visibility Wind Speed Wind Dir Waves Ship Positions

Arctic Fury

Owner: Fury Group Inc, Seattle, WA. More information available from US FCC via Universal Licensing System and Coast Guard Vessel Documentation Center.

Last reported at 2018-Jun-19 17:23 UTC. Time now 2018-Jun-21 12:00 UTC.
Position N 43°55' W 124°26'.

Length 43 m; draft 5 m.

Type: Fishing. MMSI: 366468000.

Date/timePositionNaut miles runAvg speedWind from/ knotsBaromVisibWave heightAir tempDewpointWater temp
2018-Jun-19 17:23N 43°55' W 124°26'2 3.0
2018-Jun-19 16:47N 43°53' W 124°26'3 3.6
2018-Jun-19 15:59N 43°52' W 124°23'2 2.5
2018-Jun-19 15:15N 43°51' W 124°21'2 9.2
2018-Jun-19 15:00N 43°53' W 124°21'5 8.4
2018-Jun-19 14:22N 43°58' W 124°20'512.0
2018-Jun-19 13:59N 43°59' W 124°26'2 3.3
2018-Jun-19 13:30N 43°59' W 124°28'0 0.3
2018-Jun-19 12:36N 43°59' W 124°28'1 6.1
2018-Jun-19 12:30N 43°59' W 124°27'3 5.8
2018-Jun-19 11:58N 43°59' W 124°23'2 4.0
2018-Jun-19 11:28N 43°59' W 124°20'0 0.8
2018-Jun-19 10:52N 43°59' W 124°21'0 0.4
2018-Jun-19 10:30N 43°59' W 124°21'0 0.3
2018-Jun-19 09:50N 43°59' W 124°21'0 0.3
2018-Jun-19 09:30N 43°59' W 124°22'0 0.3
2018-Jun-19 09:00N 43°59' W 124°22'0 0.3
2018-Jun-19 08:30N 43°59' W 124°22'0 0.4
2018-Jun-19 07:59N 43°59' W 124°22'0 0.4
2018-Jun-19 07:25N 43°60' W 124°22'0 0.5
2018-Jun-19 06:58N 43°60' W 124°22'0 0.6
2018-Jun-19 06:30N 44°00' W 124°22'1 0.9
2018-Jun-19 05:31N 44°01' W 124°22'0 1.0
2018-Jun-19 05:17N 44°01' W 124°23'2 1.5
2018-Jun-19 04:18N 44°00' W 124°24'4 4.4
2018-Jun-19 03:18N 43°56' W 124°22'3 7.0
2018-Jun-19 02:49N 43°53' W 124°22'8 9.1
2018-Jun-19 01:58N 43°50' W 124°32'4 7.2
2018-Jun-19 01:24N 43°50' W 124°38'4 9.4
2018-Jun-19 00:57N 43°54' W 124°37'4 7.7
2018-Jun-19 00:25N 43°58' W 124°36'4 9.1
2018-Jun-18 23:59N 44°01' W 124°32'12 7.2
2018-Jun-18 22:18N 44°11' W 124°40'3 9.8
2018-Jun-18 22:00N 44°14' W 124°39'8 8.9
2018-Jun-18 21:03N 44°19' W 124°48'3 8.9
2018-Jun-18 20:44N 44°21' W 124°50'3 9.3
2018-Jun-18 20:28N 44°22' W 124°47'5 8.9
2018-Jun-18 19:53N 44°23' W 124°40'4 6.2
2018-Jun-18 19:12N 44°27' W 124°38'2 9.7
2018-Jun-18 19:00N 44°28' W 124°36'6 9.9
2018-Jun-18 18:23N 44°33' W 124°30'12 9.1
2018-Jun-18 17:02N 44°45' W 124°33'210.0
2018-Jun-18 16:52N 44°47' W 124°33'9 9.8
2018-Jun-18 15:54N 44°56' W 124°32'4 9.9
2018-Jun-18 15:28N 45°00' W 124°32'510.1
2018-Jun-18 15:00N 45°05' W 124°31'5 9.9
2018-Jun-18 14:30N 45°10' W 124°30'510.8
2018-Jun-18 14:00N 45°15' W 124°30'510.6
2018-Jun-18 13:30N 45°21' W 124°29'510.6
2018-Jun-18 13:00N 45°26' W 124°28'510.7
2018-Jun-18 12:30N 45°31' W 124°27'510.5
2018-Jun-18 12:00N 45°36' W 124°27'510.2
2018-Jun-18 11:30N 45°41' W 124°26'4 8.9
2018-Jun-18 11:00N 45°46' W 124°25'4 8.5
2018-Jun-18 10:30N 45°50' W 124°25'4 8.9
2018-Jun-18 10:00N 45°54' W 124°24'4 8.7
2018-Jun-18 09:30N 45°59' W 124°24'4 8.8
2018-Jun-18 09:00N 46°03' W 124°23'4 8.8
2018-Jun-18 08:30N 46°07' W 124°23'5 9.2
2018-Jun-18 08:00N 46°12' W 124°22'5 9.3
2018-Jun-18 07:30N 46°17' W 124°21'5 9.2
2018-Jun-18 07:00N 46°21' W 124°21'5 9.4
2018-Jun-18 06:30N 46°26' W 124°20'5 9.4
2018-Jun-18 06:00N 46°31' W 124°19'4 8.9
2018-Jun-18 05:30N 46°35' W 124°19'5 9.5
2018-Jun-18 05:00N 46°40' W 124°18'510.0
2018-Jun-18 04:30N 46°45' W 124°17'510.2
2018-Jun-18 04:00N 46°50' W 124°17'5 9.4
2018-Jun-18 03:30N 46°54' W 124°13'5 9.6
2018-Jun-18 03:00N 46°55' W 124°06'0 0.1
2018-Jun-18 01:19N 46°55' W 124°07'0 0.0
2018-Jun-18 00:59N 46°55' W 124°07'0 0.0
2018-Jun-18 00:30N 46°55' W 124°07'0 0.5
2018-Jun-18 00:00N 46°54' W 124°06'0 0.0
2018-Jun-17 23:30N 46°54' W 124°06'0 0.0
2018-Jun-17 22:45N 46°54' W 124°06'0 0.0
2018-Jun-17 22:30N 46°54' W 124°06'0 0.0
2018-Jun-17 22:00N 46°54' W 124°06'0 0.0
2018-Jun-17 21:21N 46°54' W 124°06'0 0.0
2018-Jun-17 20:48N 46°54' W 124°06'0 0.0
2018-Jun-17 20:17N 46°54' W 124°06'0 0.0
2018-Jun-17 20:00N 46°54' W 124°06'0 0.0
2018-Jun-17 19:28N 46°54' W 124°06'0 0.0
2018-Jun-17 18:55N 46°54' W 124°06'0 0.0
2018-Jun-17 18:30N 46°54' W 124°06'0 0.0
2018-Jun-17 17:57N 46°54' W 124°06'0 0.0
2018-Jun-17 17:30N 46°54' W 124°06'0 0.0
2018-Jun-17 16:50N 46°54' W 124°06'0 0.0
2018-Jun-17 16:14N 46°54' W 124°06'0 0.0
2018-Jun-17 15:56N 46°54' W 124°06'0 0.0
2018-Jun-17 15:27N 46°54' W 124°06'0 0.0
2018-Jun-17 15:00N 46°54' W 124°06'0 0.0
2018-Jun-17 14:30N 46°54' W 124°06'0 0.0
2018-Jun-17 13:58N 46°54' W 124°06'1 2.9
2018-Jun-17 13:29N 46°55' W 124°08'3 6.6
2018-Jun-17 13:00N 46°55' W 124°13'5 9.9
2018-Jun-17 12:30N 46°59' W 124°17'510.2
2018-Jun-17 12:00N 47°03' W 124°21'510.2
2018-Jun-17 11:30N 47°08' W 124°26'2110.2
2018-Jun-17 09:25N 47°25' W 124°44'410.2
2018-Jun-17 08:59N 47°29' W 124°47'2010.0
2018-Jun-17 06:57N 47°45' W 125°05'510.5
2018-Jun-17 06:31N 47°49' W 125°09'5 9.2
2018-Jun-17 06:00N 47°53' W 125°12'2 4.1
2018-Jun-17 05:30N 47°55' W 125°14'2 3.2
2018-Jun-17 04:57N 47°56' W 125°16'1 2.3
2018-Jun-17 04:30N 47°57' W 125°17'2 3.3
2018-Jun-17 04:00N 47°58' W 125°18'1 2.8
2018-Jun-17 03:30N 47°59' W 125°20'2 3.1
2018-Jun-17 03:00N 48°01' W 125°20'1 3.0
2018-Jun-17 02:30N 48°02' W 125°20'2 3.4
2018-Jun-17 02:00N 48°04' W 125°18'1 1.0
2018-Jun-17 01:28N 48°03' W 125°19'2 3.4
2018-Jun-17 01:00N 48°02' W 125°20'2 3.3
2018-Jun-17 00:30N 48°01' W 125°21'2 3.3
2018-Jun-17 00:00N 47°59' W 125°20'1 1.7
2018-Jun-16 23:30N 47°58' W 125°19'1 2.6
2018-Jun-16 22:59N 47°60' W 125°20'2 2.9
2018-Jun-16 22:23N 48°01' W 125°20'1 3.1
2018-Jun-16 22:00N 48°03' W 125°20'2 2.6
2018-Jun-16 21:16N 48°04' W 125°20'75 2.0
2018-Jun-15 06:57N 46°60' W 124°22'510.5
2018-Jun-15 06:30N 46°56' W 124°18'4 8.8
2018-Jun-15 06:00N 46°55' W 124°12'4 1.0
2018-Jun-15 02:05N 46°54' W 124°06'0 0.0
2018-Jun-14 21:58N 46°54' W 124°06'2 0.8
2018-Jun-14 19:33N 46°55' W 124°09'112.0
2018-Jun-14 19:26N 46°55' W 124°11'511.2
2018-Jun-14 19:00N 46°51' W 124°16'510.9
2018-Jun-14 18:30N 46°45' W 124°17'510.7
2018-Jun-14 18:00N 46°40' W 124°17'510.8
2018-Jun-14 17:30N 46°35' W 124°18'510.4
2018-Jun-14 17:00N 46°30' W 124°19'5 9.9
2018-Jun-14 16:30N 46°25' W 124°20'510.0
2018-Jun-14 16:00N 46°20' W 124°21'510.5
2018-Jun-14 15:30N 46°15' W 124°21'510.0
2018-Jun-14 15:00N 46°10' W 124°22'6 9.9
2018-Jun-14 14:22N 46°03' W 124°23'3 9.2
2018-Jun-14 14:00N 45°60' W 124°23'4 9.0
2018-Jun-14 13:30N 45°55' W 124°23'4 8.8
2018-Jun-14 13:00N 45°51' W 124°23'4 8.7
2018-Jun-14 12:30N 45°47' W 124°24'4 8.8
2018-Jun-14 12:00N 45°42' W 124°24'4 8.9
2018-Jun-14 11:30N 45°38' W 124°24'4 8.9
2018-Jun-14 11:00N 45°33' W 124°24'4 8.9
2018-Jun-14 10:30N 45°29' W 124°25'4 8.7
2018-Jun-14 10:00N 45°25' W 124°25'5 8.9
2018-Jun-14 09:29N 45°20' W 124°25'119 4.7
2018-Jun-13 08:24N 43°21' W 124°20'1 3.5
2018-Jun-13 08:00N 43°22' W 124°19'3 5.1
2018-Jun-13 07:30N 43°22' W 124°22'19 9.2
2018-Jun-13 05:24N 43°39' W 124°35'7 0.3
2018-Jun-12 05:01N 43°32' W 124°38'0 1.5
2018-Jun-12 05:00N 43°32' W 124°38'1 2.4
2018-Jun-12 04:30N 43°33' W 124°38'2 3.3
2018-Jun-12 04:00N 43°35' W 124°37'1 1.8
2018-Jun-12 03:16N 43°36' W 124°38'1 2.9
2018-Jun-12 03:00N 43°35' W 124°38'2 2.7
2018-Jun-12 02:09N 43°33' W 124°37'1 3.4
2018-Jun-12 01:59N 43°32' W 124°38'105 2.5
2018-Jun-10 07:15N 45°16' W 124°15'3 9.7
2018-Jun-10 06:58N 45°19' W 124°15'4 9.8
2018-Jun-10 06:31N 45°24' W 124°15'5 9.8
2018-Jun-10 06:00N 45°28' W 124°15'5 9.9
2018-Jun-10 05:31N 45°33' W 124°15'5 9.8
2018-Jun-10 05:00N 45°38' W 124°15'5 9.8
2018-Jun-10 04:30N 45°43' W 124°15'5 9.5
2018-Jun-10 04:00N 45°48' W 124°16'8 9.8
2018-Jun-10 03:11N 45°56' W 124°17'210.0
2018-Jun-10 03:01N 45°58' W 124°17'810.1
2018-Jun-10 02:14N 46°05' W 124°18'210.0
2018-Jun-10 02:00N 46°08' W 124°19'5 9.7
2018-Jun-10 01:30N 46°12' W 124°20'10 9.2
2018-Jun-10 00:27N 46°21' W 124°26'4 9.5
2018-Jun-10 00:01N 46°25' W 124°29'5 9.0
2018-Jun-09 23:30N 46°29' W 124°32'4 8.0
2018-Jun-09 23:00N 46°32' W 124°35'5 9.3
2018-Jun-09 22:30N 46°35' W 124°40'5 9.1
2018-Jun-09 22:00N 46°38' W 124°45'4 8.5
2018-Jun-09 21:31N 46°42' W 124°48'4 8.0
2018-Jun-09 21:00N 46°45' W 124°52'4 8.9
2018-Jun-09 20:30N 46°49' W 124°56'  

Dump ship's entire track history